Terminal Aerodrome Forecast
Issued by NWS Boston, MA

Home | Current Version | Previous Version | Text Only | Print | Product List | Glossary On
Versions: 1 2 3 4 5 6 7 8 9 10 11 12 13 14 15 16
000
FTUS41 KBOX 252113 AAB
TAFORH
TAF AMD
KORH 252113Z 2521/2618 07004KT P6SM FEW250
     FM260200 18005KT P6SM SCT250
     FM260700 25004KT 6SM BR SCT050
     FM260800 27004KT 3/4SM BR SCT010
     FM261000 27004KT 1/2SM FG SCT008
     FM261300 26004KT P6SM SCT090
     FM261500 VRB03KT P6SM SCT200=

USA.gov is the U.S. government's official web portal to all federal, state and local government web resources and services.